createdAt,value
2023-02-23T00:02:27.638Z,80.72
2023-02-23T00:04:58.672Z,80.34
2023-02-23T00:07:33.127Z,80.34
2023-02-23T00:10:04.389Z,80.65
2023-02-23T00:12:36.004Z,81.08
2023-02-23T00:15:10.567Z,81.42
2023-02-23T00:17:41.968Z,81.36
2023-02-23T00:20:13.745Z,81.54
2023-02-23T00:22:47.585Z,81.38
2023-02-23T00:25:21.345Z,82.29
2023-02-23T00:27:51.142Z,82.16
2023-02-23T00:30:26.650Z,82.15
2023-02-23T00:32:59.905Z,82.03
2023-02-23T00:35:34.064Z,81.57
2023-02-23T00:38:05.492Z,81.95
2023-02-23T00:40:34.115Z,82.08
2023-02-23T00:43:05.702Z,82.12
2023-02-23T00:45:36.326Z,81.96
2023-02-23T00:48:11.006Z,81.84
2023-02-23T00:50:42.031Z,81.99
2023-02-23T00:53:11.596Z,82.41
2023-02-23T00:55:41.938Z,82.24
2023-02-23T00:58:14.245Z,82.34
2023-02-23T01:00:46.761Z,82.42
2023-02-23T01:03:15.313Z,82.36
2023-02-23T01:05:45.042Z,82.79
2023-02-23T01:08:16.590Z,82.40
2023-02-23T01:10:53.589Z,82.56
2023-02-23T01:13:28.220Z,82.68
2023-02-23T01:15:59.758Z,82.41
2023-02-23T01:18:31.398Z,82.89
2023-02-23T01:21:05.697Z,83.05
2023-02-23T01:23:37.199Z,82.76
2023-02-23T01:26:19.406Z,83.02
2023-02-23T01:28:52.656Z,82.65
2023-02-23T01:31:25.118Z,83.38
2023-02-23T01:33:58.396Z,83.58
2023-02-23T01:36:33.700Z,83.13
2023-02-23T01:39:07.958Z,82.89
2023-02-23T01:41:37.382Z,83.40
2023-02-23T01:44:35.727Z,83.45
2023-02-23T01:47:07.064Z,83.27
2023-02-23T01:49:38.597Z,83.19
2023-02-23T01:52:11.677Z,83.84
2023-02-23T01:54:50.733Z,83.67
2023-02-23T01:57:27.188Z,83.89
2023-02-23T01:59:58.973Z,84.07
2023-02-23T02:02:34.068Z,84.08
2023-02-23T02:05:06.676Z,83.88
2023-02-23T02:07:39.757Z,83.71
2023-02-23T02:10:12.484Z,83.92
2023-02-23T02:12:45.577Z,84.24
2023-02-23T02:15:20.840Z,84.46
2023-02-23T02:18:09.540Z,84.12
2023-02-23T02:21:12.560Z,83.99
2023-02-23T02:24:08.414Z,83.90
2023-02-23T02:26:51.695Z,83.94
2023-02-23T02:29:28.946Z,83.95
2023-02-23T02:32:31.952Z,83.81
2023-02-23T02:35:34.641Z,83.77
2023-02-23T02:38:21.602Z,83.97
2023-02-23T02:41:03.983Z,84.07
2023-02-23T02:43:52.374Z,84.14
2023-02-23T02:46:26.622Z,84.72
2023-02-23T02:49:20.605Z,84.45
2023-02-23T02:52:20.130Z,84.14
2023-02-23T02:55:01.500Z,84.24
2023-02-23T02:57:33.442Z,84.12
2023-02-23T03:00:25.582Z,84.10
2023-02-23T03:03:18.729Z,84.45
2023-02-23T03:06:13.596Z,84.56
2023-02-23T03:09:14.636Z,84.39
2023-02-23T03:12:26.756Z,84.24
2023-02-23T03:15:40.306Z,84.31
2023-02-23T03:18:59.123Z,83.93
2023-02-23T03:21:55.372Z,84.33
2023-02-23T03:25:11.524Z,84.25
2023-02-23T03:28:08.278Z,84.68
2023-02-23T03:31:18.490Z,84.43
2023-02-23T03:34:18.025Z,84.35
2023-02-23T03:37:13.690Z,85.07
2023-02-23T03:40:13.120Z,84.94
2023-02-23T03:43:04.693Z,84.76
2023-02-23T03:45:59.504Z,84.80
2023-02-23T03:48:53.739Z,85.07
2023-02-23T03:51:43.799Z,85.05
2023-02-23T03:54:52.453Z,85.44
2023-02-23T03:57:47.645Z,85.56
2023-02-23T04:00:47.005Z,85.40
2023-02-23T04:03:42.487Z,85.27
2023-02-23T04:06:37.683Z,85.16
2023-02-23T04:09:26.267Z,85.23
2023-02-23T04:12:21.562Z,85.17
2023-02-23T04:15:17.718Z,85.17
2023-02-23T04:17:46.485Z,84.96
2023-02-23T04:20:17.536Z,84.93
2023-02-23T04:22:46.780Z,84.94
2023-02-23T04:25:23.129Z,84.91
2023-02-23T04:27:57.706Z,84.63
2023-02-23T04:30:29.826Z,85.22
2023-02-23T04:33:05.364Z,84.95
2023-02-23T04:35:36.647Z,85.40
2023-02-23T04:38:09.793Z,85.61
2023-02-23T04:40:42.714Z,85.58
2023-02-23T04:43:17.644Z,85.33
2023-02-23T04:45:46.590Z,85.67
2023-02-23T04:48:20.851Z,85.19
2023-02-23T04:50:55.783Z,85.09
2023-02-23T04:53:27.393Z,85.76
2023-02-23T04:56:00.884Z,85.77
2023-02-23T04:58:33.233Z,85.70
2023-02-23T05:01:32.877Z,85.84
2023-02-23T05:04:10.776Z,86.21
2023-02-23T05:06:43.076Z,85.97
2023-02-23T05:09:18.822Z,85.53
2023-02-23T05:11:51.420Z,85.57
2023-02-23T05:14:21.278Z,85.63
2023-02-23T05:16:49.988Z,86.11
2023-02-23T05:19:22.399Z,85.51
2023-02-23T05:21:51.020Z,85.00
2023-02-23T05:24:22.771Z,85.10
2023-02-23T05:26:51.734Z,85.06
2023-02-23T05:29:26.123Z,84.78
2023-02-23T05:31:54.868Z,84.54
2023-02-23T05:34:28.966Z,85.12
2023-02-23T05:37:00.340Z,85.32
2023-02-23T05:39:34.980Z,85.48
2023-02-23T05:42:04.634Z,85.92
2023-02-23T05:44:38.370Z,85.59
2023-02-23T05:47:10.965Z,85.04
2023-02-23T05:49:42.049Z,84.68
2023-02-23T05:52:10.868Z,84.50
2023-02-23T05:54:44.059Z,84.89
2023-02-23T05:57:17.304Z,85.12
2023-02-23T05:59:54.817Z,85.01
2023-02-23T06:02:25.986Z,84.91
2023-02-23T06:04:56.125Z,84.63
2023-02-23T06:07:32.443Z,84.44
2023-02-23T06:10:06.086Z,84.34
2023-02-23T06:12:34.824Z,84.03
2023-02-23T06:15:06.804Z,83.99
2023-02-23T06:17:37.603Z,84.32
2023-02-23T06:20:08.373Z,84.24
2023-02-23T06:22:40.165Z,84.03
2023-02-23T06:25:12.992Z,83.87
2023-02-23T06:27:42.374Z,83.61
2023-02-23T06:30:14.168Z,83.64
2023-02-23T06:32:42.715Z,83.55
2023-02-23T06:35:13.922Z,83.11
2023-02-23T06:37:43.634Z,82.77
2023-02-23T06:40:15.221Z,82.37
2023-02-23T06:42:43.843Z,82.05
2023-02-23T06:45:13.547Z,81.74
2023-02-23T06:47:42.514Z,81.02
2023-02-23T06:50:14.478Z,80.85
2023-02-23T06:52:43.180Z,81.28
2023-02-23T06:55:13.530Z,81.24
2023-02-23T06:57:42.879Z,80.06
2023-02-23T07:00:15.369Z,79.83
2023-02-23T07:02:45.020Z,78.85
2023-02-23T07:05:14.316Z,78.60
2023-02-23T07:07:43.761Z,79.19
2023-02-23T07:10:15.464Z,79.25
2023-02-23T07:12:44.217Z,78.59
2023-02-23T07:15:13.315Z,78.20
2023-02-23T07:17:42.932Z,78.69
2023-02-23T07:20:12.533Z,78.24
2023-02-23T07:22:41.107Z,77.97
2023-02-23T07:25:10.653Z,77.79
2023-02-23T07:27:42.548Z,77.77
2023-02-23T07:30:14.220Z,77.48
2023-02-23T07:32:43.945Z,77.22
2023-02-23T07:35:13.354Z,77.31
2023-02-23T07:37:42.496Z,76.82
2023-02-23T07:40:11.876Z,75.53
2023-02-23T07:42:41.321Z,75.98
2023-02-23T07:45:12.033Z,74.92
2023-02-23T07:47:41.461Z,75.04
2023-02-23T07:50:13.119Z,74.95
2023-02-23T07:52:43.082Z,73.23
2023-02-23T07:55:12.489Z,72.57
2023-02-23T07:57:41.837Z,71.63
2023-02-23T08:00:11.906Z,71.97
2023-02-23T08:02:43.150Z,73.54
2023-02-23T08:05:11.842Z,73.11
2023-02-23T08:07:40.930Z,72.40
2023-02-23T08:10:10.348Z,71.58
2023-02-23T08:12:39.058Z,71.22
2023-02-23T08:15:08.526Z,70.16
2023-02-23T08:17:38.744Z,70.32
2023-02-23T08:20:08.820Z,71.02
2023-02-23T08:22:48.830Z,70.35
2023-02-23T08:25:27.610Z,70.23
2023-02-23T08:28:04.863Z,70.42
2023-02-23T08:30:34.237Z,69.71
2023-02-23T08:33:06.544Z,69.16
2023-02-23T08:35:45.653Z,69.42
2023-02-23T08:38:18.458Z,68.78
2023-02-23T08:40:46.893Z,67.96
2023-02-23T08:43:22.143Z,67.37
2023-02-23T08:45:53.824Z,67.09
2023-02-23T08:48:28.281Z,66.89
2023-02-23T08:50:58.782Z,65.79
2023-02-23T08:53:31.168Z,65.99
2023-02-23T08:56:02.919Z,66.64
2023-02-23T08:58:36.681Z,66.00
2023-02-23T09:01:05.811Z,64.10
2023-02-23T09:03:38.271Z,64.16
2023-02-23T09:06:15.486Z,64.18
2023-02-23T09:08:46.647Z,63.81
2023-02-23T09:11:20.657Z,62.96
2023-02-23T09:13:54.014Z,62.81
2023-02-23T09:16:25.730Z,63.06
2023-02-23T09:19:01.502Z,62.71
2023-02-23T09:21:31.000Z,62.63
2023-02-23T09:24:00.796Z,62.67
2023-02-23T09:26:32.854Z,62.98
2023-02-23T09:29:04.266Z,63.63
2023-02-23T09:31:36.378Z,63.61
2023-02-23T09:34:05.337Z,63.63
2023-02-23T09:36:34.975Z,63.98
2023-02-23T09:39:08.998Z,63.90
2023-02-23T09:42:00.905Z,64.29
2023-02-23T09:44:41.552Z,64.22
2023-02-23T09:47:26.071Z,63.78
2023-02-23T09:50:01.492Z,63.67
2023-02-23T09:52:41.380Z,63.27
2023-02-23T09:55:14.979Z,63.17
2023-02-23T09:57:48.695Z,62.94
2023-02-23T10:00:28.423Z,62.97
2023-02-23T10:03:04.722Z,62.61
2023-02-23T10:05:41.162Z,62.13
2023-02-23T10:08:49.214Z,61.38
2023-02-23T10:11:37.679Z,61.38
2023-02-23T10:14:12.769Z,60.77
2023-02-23T10:17:21.245Z,60.07
2023-02-23T10:20:27.991Z,59.64
2023-02-23T10:23:02.517Z,60.09
2023-02-23T10:25:41.911Z,59.88
2023-02-23T10:28:21.948Z,58.77
2023-02-23T10:30:53.097Z,58.53
2023-02-23T10:33:35.191Z,58.86
2023-02-23T10:36:45.245Z,59.09
2023-02-23T10:39:14.178Z,58.71
2023-02-23T10:41:43.716Z,59.18
2023-02-23T10:44:27.531Z,58.69
2023-02-23T10:47:01.425Z,58.58
2023-02-23T10:49:45.889Z,58.40
2023-02-23T10:52:24.222Z,58.32
2023-02-23T10:54:53.520Z,57.86
2023-02-23T10:57:30.705Z,57.51
2023-02-23T11:00:06.565Z,57.08
2023-02-23T11:02:39.326Z,56.28
2023-02-23T11:05:46.381Z,55.95
2023-02-23T11:08:24.011Z,56.25
2023-02-23T11:11:15.915Z,55.24
2023-02-23T11:13:48.857Z,54.86
2023-02-23T11:16:23.165Z,55.15
2023-02-23T11:19:03.519Z,55.06
2023-02-23T11:21:35.767Z,54.02
2023-02-23T11:24:29.137Z,53.19
2023-02-23T11:27:03.949Z,52.85
2023-02-23T11:29:41.966Z,52.40
2023-02-23T11:32:21.005Z,52.01
2023-02-23T11:35:14.708Z,51.94
2023-02-23T11:37:43.319Z,51.75
2023-02-23T11:40:30.127Z,52.67
2023-02-23T11:43:10.451Z,53.07
2023-02-23T11:45:51.255Z,52.88
2023-02-23T11:48:50.073Z,52.66
2023-02-23T11:51:29.360Z,52.73
2023-02-23T11:53:59.553Z,53.45
2023-02-23T11:56:31.067Z,54.09
2023-02-23T11:59:09.301Z,54.22
2023-02-23T12:01:50.160Z,52.14
2023-02-23T12:04:34.452Z,51.81
2023-02-23T12:07:29.872Z,52.14
2023-02-23T12:10:06.782Z,52.32
2023-02-23T12:12:45.053Z,52.27
2023-02-23T12:15:26.730Z,52.01
2023-02-23T12:18:29.094Z,52.16
2023-02-23T12:21:06.457Z,51.97
2023-02-23T12:23:40.305Z,52.36
2023-02-23T12:26:18.956Z,52.35
2023-02-23T12:28:59.804Z,52.47
2023-02-23T12:31:54.674Z,52.79
2023-02-23T12:34:58.532Z,52.76
2023-02-23T12:37:33.559Z,52.90
2023-02-23T12:40:20.416Z,52.89
2023-02-23T12:43:18.504Z,52.77
2023-02-23T12:45:55.286Z,52.63
2023-02-23T12:48:49.222Z,53.00
2023-02-23T12:51:34.095Z,52.77
2023-02-23T12:54:03.750Z,53.00
2023-02-23T12:56:47.707Z,52.80
2023-02-23T12:59:36.147Z,52.55
2023-02-23T13:02:15.917Z,52.51
2023-02-23T13:04:57.610Z,52.56
2023-02-23T13:08:04.871Z,52.62
2023-02-23T13:10:48.971Z,52.26
2023-02-23T13:13:32.968Z,51.93
2023-02-23T13:16:22.861Z,52.08
2023-02-23T13:19:49.994Z,52.00
2023-02-23T13:22:49.387Z,52.13
2023-02-23T13:25:34.158Z,51.88
2023-02-23T13:28:03.520Z,51.47
2023-02-23T13:30:32.893Z,51.45
2023-02-23T13:33:16.051Z,51.53
2023-02-23T13:35:44.853Z,51.60
2023-02-23T13:38:37.578Z,51.39
2023-02-23T13:41:26.936Z,51.23
2023-02-23T13:44:29.819Z,51.05
2023-02-23T13:47:17.878Z,51.24
2023-02-23T13:49:54.943Z,51.07
2023-02-23T13:52:32.396Z,51.31
2023-02-23T13:55:04.690Z,51.47
2023-02-23T13:57:35.718Z,51.60
2023-02-23T14:00:04.761Z,51.58
2023-02-23T14:02:41.586Z,51.64
2023-02-23T14:05:26.068Z,51.74
2023-02-23T14:07:57.743Z,51.88
2023-02-23T14:10:43.919Z,52.06
2023-02-23T14:13:17.977Z,52.12
2023-02-23T14:16:11.445Z,52.05
2023-02-23T14:18:55.379Z,52.23
2023-02-23T14:21:33.822Z,52.33
2023-02-23T14:24:14.596Z,52.27
2023-02-23T14:26:45.901Z,52.50
2023-02-23T14:29:17.773Z,52.69
2023-02-23T14:31:55.512Z,52.74
2023-02-23T14:34:43.479Z,52.81
2023-02-23T14:37:32.033Z,52.31
2023-02-23T14:40:09.253Z,52.10
2023-02-23T14:42:39.409Z,52.62
2023-02-23T14:45:27.505Z,52.64
2023-02-23T14:48:01.803Z,52.53
2023-02-23T14:50:33.084Z,52.27
2023-02-23T14:53:04.509Z,52.53
2023-02-23T14:55:37.629Z,52.78
2023-02-23T14:58:22.958Z,52.83
2023-02-23T15:00:52.225Z,52.72
2023-02-23T15:03:22.591Z,52.86
2023-02-23T15:05:56.449Z,53.04
2023-02-23T15:08:28.116Z,53.25
2023-02-23T15:11:12.544Z,53.42
2023-02-23T15:13:47.402Z,53.61
2023-02-23T15:16:27.985Z,53.59
2023-02-23T15:18:59.395Z,53.79
2023-02-23T15:21:28.199Z,53.98
2023-02-23T15:24:07.701Z,54.06
2023-02-23T15:26:39.264Z,54.16
2023-02-23T15:29:10.746Z,54.42
2023-02-23T15:31:41.291Z,54.51
2023-02-23T15:34:13.068Z,54.74
2023-02-23T15:36:47.479Z,54.97
2023-02-23T15:39:20.521Z,55.20
2023-02-23T15:41:50.359Z,55.36
2023-02-23T15:44:42.338Z,55.67
2023-02-23T15:47:23.311Z,55.93
2023-02-23T15:50:12.992Z,56.29
2023-02-23T15:52:54.767Z,56.49
2023-02-23T15:55:28.138Z,56.75
2023-02-23T15:58:00.290Z,56.89
2023-02-23T16:00:37.069Z,57.22
2023-02-23T16:03:07.803Z,57.62
2023-02-23T16:05:46.951Z,57.68
2023-02-23T16:08:23.496Z,57.90
2023-02-23T16:11:14.895Z,58.14
2023-02-23T16:13:47.070Z,58.31
2023-02-23T16:16:19.590Z,58.58
2023-02-23T16:18:52.562Z,58.73
2023-02-23T16:21:24.538Z,58.82
2023-02-23T16:23:55.709Z,58.99
2023-02-23T16:26:31.272Z,59.37
2023-02-23T16:29:02.327Z,59.39
2023-02-23T16:31:48.991Z,59.63
2023-02-23T16:34:26.907Z,59.77
2023-02-23T16:37:00.901Z,60.08
2023-02-23T16:39:31.718Z,60.21
2023-02-23T16:42:00.794Z,60.48
2023-02-23T16:44:42.890Z,61.04
2023-02-23T16:47:26.413Z,61.55
2023-02-23T16:49:59.345Z,62.75
2023-02-23T16:52:29.213Z,63.02
2023-02-23T16:54:57.737Z,62.97
2023-02-23T16:57:30.985Z,63.14
2023-02-23T17:00:15.481Z,63.18
2023-02-23T17:02:46.595Z,63.08
2023-02-23T17:05:19.169Z,63.19
2023-02-23T17:07:48.899Z,63.35
2023-02-23T17:10:31.427Z,63.77
2023-02-23T17:13:04.615Z,63.92
2023-02-23T17:15:37.582Z,64.74
2023-02-23T17:18:11.497Z,64.65
2023-02-23T17:20:42.750Z,64.81
2023-02-23T17:23:12.781Z,65.39
2023-02-23T17:25:41.396Z,65.55
2023-02-23T17:28:15.303Z,65.52
2023-02-23T17:30:45.063Z,65.42
2023-02-23T17:33:14.987Z,65.44
2023-02-23T17:35:44.208Z,65.47
2023-02-23T17:38:13.009Z,65.87
2023-02-23T17:40:41.724Z,65.83
2023-02-23T17:43:12.680Z,65.88
2023-02-23T17:45:41.633Z,65.93
2023-02-23T17:48:12.759Z,65.80
2023-02-23T17:50:43.897Z,65.80
2023-02-23T17:53:14.939Z,66.01
2023-02-23T17:55:43.732Z,66.70
2023-02-23T17:58:18.716Z,67.08
2023-02-23T18:00:48.951Z,67.03
2023-02-23T18:03:17.880Z,68.04
2023-02-23T18:05:47.428Z,68.38
2023-02-23T18:08:21.551Z,67.98
2023-02-23T18:10:52.949Z,67.95
2023-02-23T18:13:21.849Z,68.50
2023-02-23T18:16:00.034Z,68.69
2023-02-23T18:18:28.970Z,68.50
2023-02-23T18:21:00.835Z,69.06
2023-02-23T18:23:32.885Z,70.06
2023-02-23T18:26:07.785Z,70.38
2023-02-23T18:28:41.331Z,69.81
2023-02-23T18:31:14.412Z,70.47
2023-02-23T18:33:44.946Z,70.77
2023-02-23T18:36:38.377Z,70.47
2023-02-23T18:39:08.730Z,70.22
2023-02-23T18:41:40.532Z,71.63
2023-02-23T18:44:14.965Z,71.55
2023-02-23T18:46:46.355Z,71.38
2023-02-23T18:49:24.655Z,72.40
2023-02-23T18:51:56.821Z,72.53
2023-02-23T18:54:29.702Z,72.15
2023-02-23T18:57:01.978Z,72.17
2023-02-23T18:59:33.808Z,72.33
2023-02-23T19:02:05.101Z,72.35
2023-02-23T19:04:36.881Z,72.46
2023-02-23T19:07:11.004Z,72.85
2023-02-23T19:09:44.708Z,72.58
2023-02-23T19:12:14.909Z,72.54
2023-02-23T19:14:49.691Z,72.74
2023-02-23T19:17:21.674Z,72.88
2023-02-23T19:19:55.760Z,73.55
2023-02-23T19:22:24.998Z,73.92
2023-02-23T19:24:57.403Z,74.08
2023-02-23T19:27:28.673Z,74.21
2023-02-23T19:30:09.755Z,74.17
2023-02-23T19:32:42.060Z,73.98
2023-02-23T19:35:16.790Z,73.88
2023-02-23T19:37:49.399Z,73.93
2023-02-23T19:40:22.981Z,73.77
2023-02-23T19:42:53.453Z,73.95
2023-02-23T19:45:26.852Z,74.76
2023-02-23T19:47:58.863Z,74.77
2023-02-23T19:50:34.178Z,74.93
2023-02-23T19:53:05.257Z,75.04
2023-02-23T19:55:41.893Z,74.85
